createdAt,value
2023-01-29T00:00:23.330Z,9.18
2023-01-29T00:04:46.375Z,7.45
2023-01-29T00:08:51.613Z,7.68
2023-01-29T00:12:56.151Z,3.72
2023-01-29T00:16:59.597Z,7.28
2023-01-29T00:21:02.991Z,8.05
2023-01-29T00:25:07.019Z,5.53
2023-01-29T00:29:11.038Z,4.75
2023-01-29T00:33:14.204Z,6.93
2023-01-29T00:37:17.339Z,6.93
2023-01-29T00:41:37.910Z,5.18
2023-01-29T00:45:43.379Z,6.75
2023-01-29T00:49:46.500Z,5.35
2023-01-29T00:53:49.747Z,4.93
2023-01-29T00:57:53.115Z,6.95
2023-01-29T01:02:16.855Z,7.32
2023-01-29T01:06:19.534Z,5.63
2023-01-29T01:10:28.771Z,4.60
2023-01-29T01:14:35.202Z,7.60
2023-01-29T01:18:39.748Z,4.63
2023-01-29T01:22:43.052Z,6.90
2023-01-29T01:26:46.485Z,6.38
2023-01-29T01:30:49.747Z,5.03
2023-01-29T01:34:55.238Z,3.33
2023-01-29T01:38:58.524Z,6.43
2023-01-29T01:43:02.535Z,5.30
2023-01-29T01:47:05.664Z,6.15
2023-01-29T01:51:09.985Z,9.82
2023-01-29T01:55:16.388Z,7.47
2023-01-29T01:59:20.682Z,7.10
2023-01-29T02:03:43.376Z,8.25
2023-01-29T02:12:12.447Z,8.38
2023-01-29T02:16:15.613Z,6.78
2023-01-29T02:20:24.777Z,5.63
2023-01-29T02:25:10.048Z,7.55
2023-01-29T02:29:27.213Z,2.75
2023-01-29T02:33:42.491Z,8.48
2023-01-29T02:37:55.251Z,6.85
2023-01-29T02:42:03.305Z,7.32
2023-01-29T02:46:18.578Z,6.65
2023-01-29T02:50:26.869Z,7.70
2023-01-29T02:54:37.566Z,7.82
2023-01-29T02:58:44.775Z,10.15
2023-01-29T03:02:55.360Z,3.10
2023-01-29T03:07:04.528Z,8.38
2023-01-29T03:11:08.504Z,10.75
2023-01-29T03:19:25.516Z,8.00
2023-01-29T03:23:48.934Z,7.22
2023-01-29T03:28:13.144Z,6.95
2023-01-29T03:32:18.492Z,7.93
2023-01-29T03:36:37.958Z,8.02
2023-01-29T03:40:49.719Z,8.45
2023-01-29T03:45:01.126Z,6.95
2023-01-29T03:49:10.706Z,7.30
2023-01-29T03:53:22.941Z,7.45
2023-01-29T03:57:35.799Z,8.63
2023-01-29T04:01:44.388Z,10.63
2023-01-29T04:05:53.130Z,15.80
2023-01-29T04:10:01.985Z,10.88
2023-01-29T04:14:08.806Z,7.43
2023-01-29T04:18:15.421Z,7.63
2023-01-29T04:22:23.008Z,4.75
2023-01-29T04:26:53.355Z,10.70
2023-01-29T04:31:02.100Z,5.70
2023-01-29T04:35:24.246Z,5.38
2023-01-29T04:39:31.929Z,8.55
2023-01-29T04:43:43.973Z,5.40
2023-01-29T04:47:52.092Z,9.50
2023-01-29T04:52:03.680Z,12.43
2023-01-29T04:56:12.680Z,5.38
2023-01-29T05:00:22.754Z,7.22
2023-01-29T05:04:27.828Z,7.15
2023-01-29T05:08:33.467Z,6.95
2023-01-29T05:12:38.777Z,8.43
2023-01-29T05:16:46.840Z,8.05
2023-01-29T05:20:56.010Z,8.55
2023-01-29T05:24:59.200Z,8.30
2023-01-29T05:29:02.417Z,7.53
2023-01-29T05:33:14.855Z,7.90
2023-01-29T05:37:17.960Z,8.82
2023-01-29T05:41:21.301Z,7.50
2023-01-29T05:45:24.365Z,7.35
2023-01-29T05:49:28.870Z,7.28
2023-01-29T05:53:34.960Z,9.52
2023-01-29T05:57:38.301Z,5.40
2023-01-29T06:01:41.122Z,9.77
2023-01-29T06:05:45.743Z,10.38
2023-01-29T06:09:49.072Z,7.43
2023-01-29T06:13:51.675Z,5.32
2023-01-29T06:17:55.428Z,5.45
2023-01-29T06:22:00.040Z,15.05
2023-01-29T06:26:03.728Z,11.18
2023-01-29T06:30:08.280Z,13.43
2023-01-29T06:34:11.987Z,11.38
2023-01-29T06:38:16.732Z,9.55
2023-01-29T06:42:20.772Z,10.43
2023-01-29T06:46:23.856Z,11.18
2023-01-29T06:50:27.074Z,4.93
2023-01-29T06:54:31.681Z,10.57
2023-01-29T06:58:34.959Z,8.68
2023-01-29T07:02:38.284Z,10.25
2023-01-29T07:06:41.699Z,9.55
2023-01-29T07:10:46.977Z,8.45
2023-01-29T07:14:49.480Z,7.22
2023-01-29T07:18:52.574Z,7.20
2023-01-29T07:22:55.921Z,8.90
2023-01-29T07:27:00.505Z,7.90
2023-01-29T07:31:03.689Z,10.18
2023-01-29T07:35:07.865Z,7.70
2023-01-29T07:39:10.851Z,6.68
2023-01-29T07:43:17.802Z,6.65
2023-01-29T07:47:21.209Z,6.15
2023-01-29T07:51:24.093Z,7.50
2023-01-29T07:55:27.406Z,4.38
2023-01-29T07:59:32.491Z,4.75
2023-01-29T08:03:36.089Z,10.90
2023-01-29T08:07:39.415Z,5.70
2023-01-29T08:11:42.647Z,9.25
2023-01-29T08:15:47.475Z,4.68
2023-01-29T08:19:51.646Z,8.95
2023-01-29T08:23:54.444Z,5.55
2023-01-29T08:28:01.191Z,6.40
2023-01-29T08:32:05.925Z,9.27
2023-01-29T08:36:12.268Z,9.73
2023-01-29T08:40:16.222Z,7.90
2023-01-29T08:44:19.785Z,8.05
2023-01-29T08:48:24.190Z,9.48
2023-01-29T08:52:28.377Z,8.05
2023-01-29T08:56:31.648Z,4.28
2023-01-29T09:00:35.794Z,13.65
2023-01-29T09:04:40.387Z,14.65
2023-01-29T09:08:43.607Z,9.55
2023-01-29T09:12:46.574Z,8.35
2023-01-29T09:16:50.046Z,19.27
2023-01-29T09:20:55.172Z,5.97
2023-01-29T09:24:58.392Z,9.70
2023-01-29T09:29:01.698Z,11.05
2023-01-29T09:33:04.980Z,13.25
2023-01-29T09:37:10.008Z,22.55
2023-01-29T09:41:31.123Z,5.63
2023-01-29T09:45:34.798Z,6.72
2023-01-29T09:49:42.629Z,6.38
2023-01-29T09:53:55.452Z,9.10
2023-01-29T09:58:02.778Z,8.60
2023-01-29T10:02:17.396Z,5.35
2023-01-29T10:06:34.933Z,8.15
2023-01-29T10:10:51.082Z,8.10
2023-01-29T10:15:07.215Z,6.07
2023-01-29T10:19:29.411Z,8.23
2023-01-29T10:23:35.648Z,5.38
2023-01-29T10:27:47.799Z,5.18
2023-01-29T10:31:56.665Z,11.35
2023-01-29T10:36:06.166Z,12.82
2023-01-29T10:40:22.944Z,8.63
2023-01-29T10:44:39.705Z,11.98
2023-01-29T10:48:51.302Z,12.18
2023-01-29T10:53:15.817Z,4.57
2023-01-29T10:57:41.989Z,11.80
2023-01-29T11:01:46.736Z,10.05
2023-01-29T11:05:58.465Z,8.98
2023-01-29T11:10:09.479Z,11.93
2023-01-29T11:14:16.330Z,7.45
2023-01-29T11:18:20.474Z,11.35
2023-01-29T11:22:24.951Z,9.38
2023-01-29T11:26:28.655Z,7.07
2023-01-29T11:30:33.930Z,10.40
2023-01-29T11:34:58.302Z,12.27
2023-01-29T11:39:16.806Z,10.98
2023-01-29T11:43:23.749Z,10.30
2023-01-29T11:47:30.104Z,11.82
2023-01-29T11:51:41.085Z,13.65
2023-01-29T11:55:51.061Z,12.18
2023-01-29T11:59:56.348Z,22.55
2023-01-29T12:03:59.649Z,9.98
2023-01-29T12:08:05.652Z,8.88
2023-01-29T12:12:29.051Z,13.77
2023-01-29T12:16:38.150Z,16.50
2023-01-29T12:20:46.707Z,13.57
2023-01-29T12:24:58.770Z,14.50
2023-01-29T12:29:20.067Z,13.75
2023-01-29T12:33:30.825Z,15.98
2023-01-29T12:37:43.087Z,16.73
2023-01-29T12:41:52.884Z,13.13
2023-01-29T12:45:59.372Z,16.73
2023-01-29T12:50:07.287Z,14.25
2023-01-29T12:54:16.075Z,22.25
2023-01-29T12:58:25.705Z,17.83
2023-01-29T13:02:36.632Z,14.68
2023-01-29T13:06:46.153Z,21.90
2023-01-29T13:10:52.395Z,8.75
2023-01-29T13:15:02.810Z,9.93
2023-01-29T13:19:16.432Z,18.98
2023-01-29T13:23:23.264Z,17.80
2023-01-29T13:27:31.206Z,18.08
2023-01-29T13:31:38.260Z,9.80
2023-01-29T13:35:43.629Z,7.18
2023-01-29T13:39:50.361Z,18.13
2023-01-29T13:43:53.416Z,15.23
2023-01-29T13:48:11.435Z,15.10
2023-01-29T13:52:33.488Z,14.32
2023-01-29T13:56:59.441Z,21.70
2023-01-29T14:01:02.800Z,23.73
2023-01-29T14:10:14.674Z,15.48
2023-01-29T14:14:51.177Z,22.58
2023-01-29T14:18:59.434Z,15.95
2023-01-29T14:27:25.585Z,20.08
2023-01-29T14:31:32.604Z,16.25
2023-01-29T14:35:36.333Z,25.35
2023-01-29T14:43:49.319Z,13.40
2023-01-29T14:48:01.503Z,14.27
2023-01-29T14:52:06.015Z,13.38
2023-01-29T14:56:15.928Z,16.98
2023-01-29T15:00:28.111Z,20.38
2023-01-29T15:04:38.526Z,12.73
2023-01-29T15:08:47.218Z,8.60
2023-01-29T15:13:00.301Z,18.17
2023-01-29T15:17:17.690Z,10.63
2023-01-29T15:21:22.952Z,23.20
2023-01-29T15:25:34.027Z,12.63
2023-01-29T15:29:37.747Z,18.02
2023-01-29T15:33:46.753Z,14.45
2023-01-29T15:38:00.828Z,22.23
2023-01-29T15:42:14.566Z,18.60
2023-01-29T15:46:26.516Z,13.15
2023-01-29T15:50:34.380Z,14.43
2023-01-29T15:54:37.836Z,21.00
2023-01-29T15:58:41.834Z,19.17
2023-01-29T16:02:45.193Z,14.57
2023-01-29T16:06:51.491Z,18.73
2023-01-29T16:11:00.301Z,28.58
2023-01-29T16:15:05.771Z,23.95
2023-01-29T16:19:21.647Z,10.20
2023-01-29T16:23:28.512Z,21.95
2023-01-29T16:27:33.814Z,23.63
2023-01-29T16:31:38.465Z,29.02
2023-01-29T16:35:42.463Z,11.90
2023-01-29T16:43:55.180Z,8.48
2023-01-29T16:48:03.322Z,21.90
2023-01-29T16:52:19.194Z,18.85
2023-01-29T16:56:27.520Z,32.22
2023-01-29T17:00:34.818Z,17.30
2023-01-29T17:04:38.107Z,13.10
2023-01-29T17:08:44.314Z,24.27
2023-01-29T17:12:55.135Z,26.33
2023-01-29T17:17:03.699Z,25.17
2023-01-29T17:21:08.007Z,11.95
2023-01-29T17:25:15.973Z,20.52
2023-01-29T17:29:22.317Z,21.02
2023-01-29T17:33:26.874Z,23.60
2023-01-29T17:37:34.077Z,17.38
2023-01-29T17:41:37.299Z,6.00
2023-01-29T17:45:44.324Z,19.52
2023-01-29T17:49:48.156Z,19.20
2023-01-29T17:53:51.408Z,19.40
2023-01-29T17:57:54.570Z,23.35
2023-01-29T18:01:59.303Z,22.48
2023-01-29T18:06:06.992Z,23.15
2023-01-29T18:10:17.341Z,26.17
2023-01-29T18:14:20.729Z,16.88
2023-01-29T18:18:30.480Z,20.23
2023-01-29T18:22:33.759Z,26.60
2023-01-29T18:26:39.314Z,28.50
2023-01-29T18:30:44.662Z,22.88
2023-01-29T18:34:49.680Z,26.02
2023-01-29T18:38:54.301Z,28.60
2023-01-29T18:43:00.099Z,28.08
2023-01-29T18:47:05.019Z,20.75
2023-01-29T18:51:09.797Z,21.23
2023-01-29T18:55:15.848Z,18.45
2023-01-29T18:59:21.748Z,25.80
2023-01-29T19:03:25.043Z,29.08
2023-01-29T19:07:29.361Z,19.52
2023-01-29T19:11:32.449Z,29.27
2023-01-29T19:15:38.085Z,28.60
2023-01-29T19:19:42.360Z,18.67
2023-01-29T19:23:46.891Z,30.02
2023-01-29T19:27:50.205Z,31.50
2023-01-29T19:31:53.569Z,25.70
2023-01-29T19:35:58.877Z,29.92
2023-01-29T19:40:03.698Z,28.85
2023-01-29T19:44:09.637Z,26.75
2023-01-29T19:48:14.740Z,28.08
2023-01-29T19:52:41.447Z,32.72
2023-01-29T19:56:54.317Z,24.88
2023-01-29T20:00:58.782Z,29.13
2023-01-29T20:05:03.798Z,21.92
2023-01-29T20:09:07.221Z,27.98
2023-01-29T20:13:12.756Z,31.25
2023-01-29T20:17:17.282Z,24.48
2023-01-29T20:21:22.686Z,14.55
2023-01-29T20:25:29.200Z,31.63
2023-01-29T20:29:33.745Z,24.50
2023-01-29T20:33:39.483Z,24.80
2023-01-29T20:37:43.332Z,27.27
2023-01-29T20:41:49.499Z,27.45
2023-01-29T20:45:54.703Z,27.27
2023-01-29T20:49:58.380Z,27.55
2023-01-29T20:54:01.731Z,29.52
2023-01-29T20:58:07.956Z,26.33
2023-01-29T21:02:14.913Z,26.23
2023-01-29T21:06:18.087Z,20.88
2023-01-29T21:10:23.589Z,27.48
2023-01-29T21:14:27.456Z,24.02
2023-01-29T21:18:35.042Z,23.20
2023-01-29T21:22:39.129Z,21.50
2023-01-29T21:26:42.677Z,29.65
2023-01-29T21:30:47.881Z,9.52
2023-01-29T21:34:55.539Z,32.53
2023-01-29T21:39:16.903Z,25.33
2023-01-29T21:43:20.393Z,25.90
2023-01-29T21:51:31.158Z,29.42
2023-01-29T21:55:37.286Z,30.05
2023-01-29T21:59:40.558Z,26.02
2023-01-29T22:03:46.120Z,14.20
2023-01-29T22:07:51.938Z,12.95
2023-01-29T22:11:55.485Z,12.40
2023-01-29T22:15:59.162Z,29.38
2023-01-29T22:20:04.461Z,30.38
2023-01-29T22:28:12.266Z,25.52
2023-01-29T22:32:16.126Z,26.20
2023-01-29T22:36:19.693Z,21.33
2023-01-29T22:40:24.403Z,27.58
2023-01-29T22:44:27.639Z,22.17
2023-01-29T22:48:30.828Z,23.70
2023-01-29T22:52:38.737Z,19.42
2023-01-29T22:56:43.518Z,19.88
2023-01-29T23:00:50.748Z,29.20
2023-01-29T23:04:53.852Z,21.75
2023-01-29T23:08:56.852Z,18.27
2023-01-29T23:13:01.438Z,22.30
2023-01-29T23:17:05.217Z,15.27
2023-01-29T23:21:08.933Z,12.95
2023-01-29T23:25:12.177Z,24.05
2023-01-29T23:29:18.308Z,12.13
2023-01-29T23:33:24.429Z,21.90
2023-01-29T23:37:27.256Z,27.23
2023-01-29T23:41:31.593Z,17.23
2023-01-29T23:45:38.421Z,18.30
2023-01-29T23:49:44.120Z,18.83
2023-01-29T23:53:47.331Z,21.55
2023-01-29T23:57:50.869Z,18.73
